sensor_id;sensor_type;location;lat;lon;timestamp;pressure;altitude;pressure_sealevel;temperature;humidity
75945;BME280;64628;50.104;14.614;2022-10-31T00:00:06;99130.76;;;11.59;52.97
75945;BME280;64628;50.104;14.614;2022-10-31T00:02:28;99130.43;;;11.56;53.05
75945;BME280;64628;50.104;14.614;2022-10-31T00:04:54;99131.60;;;11.31;53.16
75945;BME280;64628;50.104;14.614;2022-10-31T00:07:19;99125.66;;;11.45;53.21
75945;BME280;64628;50.104;14.614;2022-10-31T00:09:44;99126.51;;;11.42;53.54
75945;BME280;64628;50.104;14.614;2022-10-31T00:12:09;99125.73;;;11.46;53.32
75945;BME280;64628;50.104;14.614;2022-10-31T00:14:35;99123.87;;;11.43;53.00
75945;BME280;64628;50.104;14.614;2022-10-31T00:17:00;99122.67;;;11.38;52.82
75945;BME280;64628;50.104;14.614;2022-10-31T00:19:25;99120.91;;;11.01;52.88
75945;BME280;64628;50.104;14.614;2022-10-31T00:21:51;99122.36;;;11.12;53.10
75945;BME280;64628;50.104;14.614;2022-10-31T00:24:16;99122.98;;;11.18;53.23
75945;BME280;64628;50.104;14.614;2022-10-31T00:26:41;99124.04;;;10.96;52.93
75945;BME280;64628;50.104;14.614;2022-10-31T00:29:07;99126.10;;;11.34;52.74
75945;BME280;64628;50.104;14.614;2022-10-31T00:31:32;99128.04;;;11.25;52.93
75945;BME280;64628;50.104;14.614;2022-10-31T00:33:58;99133.20;;;11.06;52.59
75945;BME280;64628;50.104;14.614;2022-10-31T00:36:23;99132.39;;;11.28;52.87
75945;BME280;64628;50.104;14.614;2022-10-31T00:38:48;99128.72;;;11.29;53.01
75945;BME280;64628;50.104;14.614;2022-10-31T00:41:16;99127.52;;;11.24;53.03
75945;BME280;64628;50.104;14.614;2022-10-31T00:43:39;99130.71;;;11.28;52.97
75945;BME280;64628;50.104;14.614;2022-10-31T00:46:04;99130.77;;;11.25;52.98
75945;BME280;64628;50.104;14.614;2022-10-31T00:48:30;99131.88;;;11.02;53.10
75945;BME280;64628;50.104;14.614;2022-10-31T00:50:55;99134.67;;;11.29;53.04
75945;BME280;64628;50.104;14.614;2022-10-31T00:53:21;99138.63;;;11.30;53.00
75945;BME280;64628;50.104;14.614;2022-10-31T00:55:46;99141.03;;;11.22;53.03
75945;BME280;64628;50.104;14.614;2022-10-31T00:58:11;99138.95;;;11.31;52.93
75945;BME280;64628;50.104;14.614;2022-10-31T01:00:37;99138.34;;;11.32;52.78
75945;BME280;64628;50.104;14.614;2022-10-31T01:03:02;99139.95;;;11.27;52.66
75945;BME280;64628;50.104;14.614;2022-10-31T01:05:27;99141.85;;;11.16;53.02
75945;BME280;64628;50.104;14.614;2022-10-31T01:07:52;99140.26;;;11.39;53.06
75945;BME280;64628;50.104;14.614;2022-10-31T01:10:18;99141.54;;;11.23;53.24
75945;BME280;64628;50.104;14.614;2022-10-31T01:12:45;99140.70;;;11.25;53.22
75945;BME280;64628;50.104;14.614;2022-10-31T01:15:10;99139.61;;;11.30;53.02
75945;BME280;64628;50.104;14.614;2022-10-31T01:17:35;99143.18;;;11.40;52.90
75945;BME280;64628;50.104;14.614;2022-10-31T01:20:00;99138.92;;;11.45;52.96
75945;BME280;64628;50.104;14.614;2022-10-31T01:22:25;99141.35;;;11.18;53.12
75945;BME280;64628;50.104;14.614;2022-10-31T01:24:51;99140.11;;;11.35;53.21
75945;BME280;64628;50.104;14.614;2022-10-31T01:27:16;99138.68;;;11.33;53.32
75945;BME280;64628;50.104;14.614;2022-10-31T01:29:42;99138.41;;;11.31;53.27
75945;BME280;64628;50.104;14.614;2022-10-31T01:32:07;99134.85;;;11.19;53.17
75945;BME280;64628;50.104;14.614;2022-10-31T01:34:33;99136.31;;;11.41;53.04
75945;BME280;64628;50.104;14.614;2022-10-31T01:36:58;99136.41;;;11.15;53.11
75945;BME280;64628;50.104;14.614;2022-10-31T01:39:24;99138.28;;;11.20;53.03
75945;BME280;64628;50.104;14.614;2022-10-31T01:41:51;99141.16;;;11.41;52.75
75945;BME280;64628;50.104;14.614;2022-10-31T01:46:43;99141.18;;;11.15;52.81
75945;BME280;64628;50.104;14.614;2022-10-31T01:49:11;99136.57;;;11.26;53.06
75945;BME280;64628;50.104;14.614;2022-10-31T01:51:34;99135.86;;;10.89;53.54
75945;BME280;64628;50.104;14.614;2022-10-31T01:53:59;99137.05;;;11.12;53.63
75945;BME280;64628;50.104;14.614;2022-10-31T01:56:22;99133.85;;;11.26;52.96
75945;BME280;64628;50.104;14.614;2022-10-31T01:58:47;99130.90;;;11.20;53.05
75945;BME280;64628;50.104;14.614;2022-10-31T02:01:14;99130.61;;;11.01;53.36
75945;BME280;64628;50.104;14.614;2022-10-31T02:03:39;99130.74;;;11.54;53.15
75945;BME280;64628;50.104;14.614;2022-10-31T02:06:07;99128.52;;;10.82;53.83
75945;BME280;64628;50.104;14.614;2022-10-31T02:08:31;99126.95;;;10.80;54.32
75945;BME280;64628;50.104;14.614;2022-10-31T02:10:56;99124.75;;;10.96;53.69
75945;BME280;64628;50.104;14.614;2022-10-31T02:13:21;99124.85;;;10.88;53.54
75945;BME280;64628;50.104;14.614;2022-10-31T02:15:49;99126.55;;;10.96;53.35
75945;BME280;64628;50.104;14.614;2022-10-31T02:18:11;99123.33;;;11.02;53.50
75945;BME280;64628;50.104;14.614;2022-10-31T02:20:42;99124.33;;;10.80;53.79
75945;BME280;64628;50.104;14.614;2022-10-31T02:23:16;99124.83;;;10.94;53.91
75945;BME280;64628;50.104;14.614;2022-10-31T02:25:42;99125.77;;;10.79;53.83
75945;BME280;64628;50.104;14.614;2022-10-31T02:28:10;99124.57;;;10.84;53.98
75945;BME280;64628;50.104;14.614;2022-10-31T02:30:20;99127.33;;;10.93;53.72
75945;BME280;64628;50.104;14.614;2022-10-31T02:32:52;99126.77;;;10.75;53.44
75945;BME280;64628;50.104;14.614;2022-10-31T02:35:13;99126.26;;;11.07;52.99
75945;BME280;64628;50.104;14.614;2022-10-31T02:37:37;99125.72;;;11.13;53.03
75945;BME280;64628;50.104;14.614;2022-10-31T02:40:06;99127.46;;;10.78;53.75
75945;BME280;64628;50.104;14.614;2022-10-31T02:42:31;99129.73;;;11.05;52.99
75945;BME280;64628;50.104;14.614;2022-10-31T02:44:58;99133.24;;;11.04;53.15
75945;BME280;64628;50.104;14.614;2022-10-31T02:47:18;99131.99;;;10.74;53.74
75945;BME280;64628;50.104;14.614;2022-10-31T02:49:45;99130.66;;;10.93;53.87
75945;BME280;64628;50.104;14.614;2022-10-31T02:52:16;99136.28;;;11.17;53.69
75945;BME280;64628;50.104;14.614;2022-10-31T02:54:33;99135.75;;;10.74;53.56
75945;BME280;64628;50.104;14.614;2022-10-31T02:57:02;99135.67;;;11.07;53.45
75945;BME280;64628;50.104;14.614;2022-10-31T02:59:24;99137.48;;;10.81;53.53
75945;BME280;64628;50.104;14.614;2022-10-31T03:02:01;99139.66;;;11.04;53.50
75945;BME280;64628;50.104;14.614;2022-10-31T03:04:29;99137.61;;;11.30;53.17
75945;BME280;64628;50.104;14.614;2022-10-31T03:06:45;99136.52;;;10.95;53.60
75945;BME280;64628;50.104;14.614;2022-10-31T03:09:11;99142.76;;;10.80;53.24
75945;BME280;64628;50.104;14.614;2022-10-31T03:11:37;99149.40;;;10.95;53.40
75945;BME280;64628;50.104;14.614;2022-10-31T03:14:03;99152.88;;;10.74;53.21
75945;BME280;64628;50.104;14.614;2022-10-31T03:16:25;99157.74;;;11.21;53.14
75945;BME280;64628;50.104;14.614;2022-10-31T03:18:50;99158.87;;;10.87;53.36
75945;BME280;64628;50.104;14.614;2022-10-31T03:21:15;99150.10;;;10.88;53.28
75945;BME280;64628;50.104;14.614;2022-10-31T03:23:39;99151.37;;;10.87;53.36
75945;BME280;64628;50.104;14.614;2022-10-31T03:26:06;99150.29;;;11.04;52.94
75945;BME280;64628;50.104;14.614;2022-10-31T03:28:34;99149.06;;;10.72;53.01
75945;BME280;64628;50.104;14.614;2022-10-31T03:30:57;99149.80;;;10.88;52.96
75945;BME280;64628;50.104;14.614;2022-10-31T03:33:24;99148.71;;;10.94;53.09
75945;BME280;64628;50.104;14.614;2022-10-31T03:35:48;99151.42;;;10.76;53.10
75945;BME280;64628;50.104;14.614;2022-10-31T03:38:13;99147.59;;;11.19;53.06
75945;BME280;64628;50.104;14.614;2022-10-31T03:40:38;99147.81;;;11.12;53.41
75945;BME280;64628;50.104;14.614;2022-10-31T03:43:06;99150.43;;;10.66;53.34
75945;BME280;64628;50.104;14.614;2022-10-31T03:45:30;99152.47;;;11.05;53.01
75945;BME280;64628;50.104;14.614;2022-10-31T03:47:55;99155.66;;;10.78;52.99
75945;BME280;64628;50.104;14.614;2022-10-31T03:50:20;99159.35;;;10.90;52.76
75945;BME280;64628;50.104;14.614;2022-10-31T03:52:48;99161.00;;;10.95;52.72
75945;BME280;64628;50.104;14.614;2022-10-31T03:55:15;99158.39;;;11.11;52.52
75945;BME280;64628;50.104;14.614;2022-10-31T03:57:40;99160.65;;;10.75;52.45
75945;BME280;64628;50.104;14.614;2022-10-31T04:00:04;99160.28;;;11.01;52.52
75945;BME280;64628;50.104;14.614;2022-10-31T04:02:29;99158.38;;;10.71;52.77
75945;BME280;64628;50.104;14.614;2022-10-31T04:04:53;99159.90;;;10.74;52.71
75945;BME280;64628;50.104;14.614;2022-10-31T04:07:20;99156.49;;;10.89;52.82
75945;BME280;64628;50.104;14.614;2022-10-31T04:09:45;99160.53;;;10.62;52.88
75945;BME280;64628;50.104;14.614;2022-10-31T04:12:10;99161.15;;;10.83;52.88
75945;BME280;64628;50.104;14.614;2022-10-31T04:14:36;99161.11;;;10.98;53.11
75945;BME280;64628;50.104;14.614;2022-10-31T04:16:59;99160.64;;;10.53;53.13
75945;BME280;64628;50.104;14.614;2022-10-31T04:19:25;99160.83;;;10.87;52.91
75945;BME280;64628;50.104;14.614;2022-10-31T04:21:50;99159.87;;;10.56;53.02
75945;BME280;64628;50.104;14.614;2022-10-31T04:24:15;99161.12;;;10.23;53.67
75945;BME280;64628;50.104;14.614;2022-10-31T04:26:41;99165.89;;;11.01;53.32
75945;BME280;64628;50.104;14.614;2022-10-31T04:29:06;99171.21;;;10.79;53.22
75945;BME280;64628;50.104;14.614;2022-10-31T04:31:31;99174.20;;;10.59;53.05
75945;BME280;64628;50.104;14.614;2022-10-31T04:33:57;99179.85;;;10.61;52.91
75945;BME280;64628;50.104;14.614;2022-10-31T04:36:22;99181.98;;;10.53;53.10
75945;BME280;64628;50.104;14.614;2022-10-31T04:38:48;99183.89;;;11.16;53.03
75945;BME280;64628;50.104;14.614;2022-10-31T04:41:13;99182.76;;;11.20;52.93
75945;BME280;64628;50.104;14.614;2022-10-31T04:43:38;99184.71;;;10.61;53.14
75945;BME280;64628;50.104;14.614;2022-10-31T04:46:04;99186.19;;;10.53;53.51
75945;BME280;64628;50.104;14.614;2022-10-31T04:48:29;99186.63;;;11.20;53.19
75945;BME280;64628;50.104;14.614;2022-10-31T04:50:58;99184.02;;;10.79;53.66
75945;BME280;64628;50.104;14.614;2022-10-31T04:53:20;99183.12;;;10.88;53.58
75945;BME280;64628;50.104;14.614;2022-10-31T04:55:45;99185.78;;;11.16;53.56
75945;BME280;64628;50.104;14.614;2022-10-31T04:58:10;99182.74;;;10.71;53.64
75945;BME280;64628;50.104;14.614;2022-10-31T05:00:36;99180.72;;;10.71;53.61
75945;BME280;64628;50.104;14.614;2022-10-31T05:03:02;99181.56;;;11.23;53.57
75945;BME280;64628;50.104;14.614;2022-10-31T05:05:29;99180.58;;;10.41;53.71
75945;BME280;64628;50.104;14.614;2022-10-31T05:07:53;99178.28;;;10.65;53.65
75945;BME280;64628;50.104;14.614;2022-10-31T05:10:21;99178.64;;;10.97;53.73
75945;BME280;64628;50.104;14.614;2022-10-31T05:12:47;99180.76;;;10.62;53.75
75945;BME280;64628;50.104;14.614;2022-10-31T05:15:09;99180.90;;;10.70;53.86
75945;BME280;64628;50.104;14.614;2022-10-31T05:17:34;99181.66;;;10.85;54.13
75945;BME280;64628;50.104;14.614;2022-10-31T05:19:59;99177.40;;;10.85;53.70
75945;BME280;64628;50.104;14.614;2022-10-31T05:22:25;99178.45;;;11.07;53.60
75945;BME280;64628;50.104;14.614;2022-10-31T05:24:50;99181.15;;;10.82;53.74
75945;BME280;64628;50.104;14.614;2022-10-31T05:27:16;99183.88;;;11.01;53.39
75945;BME280;64628;50.104;14.614;2022-10-31T05:29:41;99186.55;;;11.19;53.53
75945;BME280;64628;50.104;14.614;2022-10-31T05:32:07;99187.20;;;10.92;53.41
75945;BME280;64628;50.104;14.614;2022-10-31T05:34:33;99189.49;;;11.06;53.66
75945;BME280;64628;50.104;14.614;2022-10-31T05:36:58;99193.15;;;11.12;53.49
75945;BME280;64628;50.104;14.614;2022-10-31T05:39:23;99192.51;;;10.91;53.45
75945;BME280;64628;50.104;14.614;2022-10-31T05:41:48;99190.28;;;10.92;53.41
75945;BME280;64628;50.104;14.614;2022-10-31T05:44:14;99192.90;;;10.92;53.62
75945;BME280;64628;50.104;14.614;2022-10-31T05:46:39;99192.22;;;10.92;53.33
75945;BME280;64628;50.104;14.614;2022-10-31T05:49:05;99192.00;;;10.80;53.88
75945;BME280;64628;50.104;14.614;2022-10-31T05:51:30;99193.54;;;10.94;53.49
75945;BME280;64628;50.104;14.614;2022-10-31T05:53:56;99195.44;;;10.54;54.00
75945;BME280;64628;50.104;14.614;2022-10-31T05:56:21;99192.66;;;10.95;53.60
75945;BME280;64628;50.104;14.614;2022-10-31T05:58:47;99196.71;;;11.25;53.43
75945;BME280;64628;50.104;14.614;2022-10-31T06:01:12;99201.10;;;11.10;53.35
75945;BME280;64628;50.104;14.614;2022-10-31T06:03:37;99201.33;;;11.06;53.63
75945;BME280;64628;50.104;14.614;2022-10-31T06:06:03;99204.01;;;11.06;53.59
75945;BME280;64628;50.104;14.614;2022-10-31T06:08:29;99200.52;;;11.19;53.42
75945;BME280;64628;50.104;14.614;2022-10-31T06:10:54;99199.19;;;10.93;54.02
75945;BME280;64628;50.104;14.614;2022-10-31T06:13:20;99197.91;;;11.16;53.51
75945;BME280;64628;50.104;14.614;2022-10-31T06:15:45;99196.29;;;11.27;53.32
75945;BME280;64628;50.104;14.614;2022-10-31T06:18:11;99198.00;;;11.29;53.37
75945;BME280;64628;50.104;14.614;2022-10-31T06:20:36;99195.62;;;11.21;53.46
75945;BME280;64628;50.104;14.614;2022-10-31T06:23:02;99197.61;;;11.14;53.83
75945;BME280;64628;50.104;14.614;2022-10-31T06:25:27;99201.95;;;10.96;54.27
75945;BME280;64628;50.104;14.614;2022-10-31T06:27:52;99206.65;;;11.31;53.48
75945;BME280;64628;50.104;14.614;2022-10-31T06:30:18;99211.61;;;11.38;53.47
75945;BME280;64628;50.104;14.614;2022-10-31T06:32:43;99215.76;;;11.52;53.27
75945;BME280;64628;50.104;14.614;2022-10-31T06:35:09;99216.80;;;11.08;53.72
75945;BME280;64628;50.104;14.614;2022-10-31T06:37:33;99218.52;;;11.31;53.30
75945;BME280;64628;50.104;14.614;2022-10-31T06:39:59;99217.66;;;11.58;53.14
75945;BME280;64628;50.104;14.614;2022-10-31T06:42:24;99221.92;;;11.58;52.95
75945;BME280;64628;50.104;14.614;2022-10-31T06:44:49;99226.53;;;11.72;52.87
75945;BME280;64628;50.104;14.614;2022-10-31T06:47:15;99232.48;;;11.75;53.11
75945;BME280;64628;50.104;14.614;2022-10-31T06:49:41;99237.08;;;11.27;53.24
75945;BME280;64628;50.104;14.614;2022-10-31T06:52:06;99235.16;;;11.93;52.67
75945;BME280;64628;50.104;14.614;2022-10-31T06:54:32;99226.61;;;11.87;52.48
75945;BME280;64628;50.104;14.614;2022-10-31T06:56:57;99227.33;;;11.71;52.50
75945;BME280;64628;50.104;14.614;2022-10-31T06:59:22;99230.89;;;11.84;52.68
75945;BME280;64628;50.104;14.614;2022-10-31T07:01:49;99227.77;;;11.92;52.98
75945;BME280;64628;50.104;14.614;2022-10-31T07:04:14;99228.93;;;11.51;53.64
75945;BME280;64628;50.104;14.614;2022-10-31T07:06:40;99235.50;;;11.76;53.30
75945;BME280;64628;50.104;14.614;2022-10-31T07:09:05;99242.19;;;11.97;52.88
75945;BME280;64628;50.104;14.614;2022-10-31T07:11:30;99243.20;;;11.50;53.02
75945;BME280;64628;50.104;14.614;2022-10-31T07:13:56;99244.26;;;12.30;52.10
75945;BME280;64628;50.104;14.614;2022-10-31T07:16:21;99243.83;;;12.17;52.01
75945;BME280;64628;50.104;14.614;2022-10-31T07:18:46;99242.13;;;12.35;51.48
75945;BME280;64628;50.104;14.614;2022-10-31T07:21:11;99240.24;;;12.18;51.73
75945;BME280;64628;50.104;14.614;2022-10-31T07:23:37;99241.46;;;11.98;51.86
75945;BME280;64628;50.104;14.614;2022-10-31T07:26:03;99245.77;;;11.80;52.01
75945;BME280;64628;50.104;14.614;2022-10-31T07:28:28;99243.76;;;12.09;51.88
75945;BME280;64628;50.104;14.614;2022-10-31T07:30:54;99247.42;;;11.96;52.02
75945;BME280;64628;50.104;14.614;2022-10-31T07:33:19;99247.75;;;12.27;51.93
75945;BME280;64628;50.104;14.614;2022-10-31T07:35:44;99247.79;;;12.41;51.44
75945;BME280;64628;50.104;14.614;2022-10-31T07:38:11;99244.32;;;12.31;51.52
75945;BME280;64628;50.104;14.614;2022-10-31T07:40:34;99247.20;;;12.40;51.76
75945;BME280;64628;50.104;14.614;2022-10-31T07:43:00;99251.33;;;12.70;51.66
75945;BME280;64628;50.104;14.614;2022-10-31T07:45:25;99247.59;;;12.31;51.50
75945;BME280;64628;50.104;14.614;2022-10-31T07:47:51;99247.25;;;12.73;51.08
75945;BME280;64628;50.104;14.614;2022-10-31T07:50:18;99252.96;;;12.95;51.17
75945;BME280;64628;50.104;14.614;2022-10-31T07:52:42;99248.33;;;12.80;50.81
75945;BME280;64628;50.104;14.614;2022-10-31T07:55:08;99254.19;;;13.00;50.60
75945;BME280;64628;50.104;14.614;2022-10-31T07:57:33;99253.68;;;13.54;49.99
75945;BME280;64628;50.104;14.614;2022-10-31T07:59:59;99256.07;;;13.11;49.89
75945;BME280;64628;50.104;14.614;2022-10-31T08:02:25;99256.80;;;13.04;50.99
75945;BME280;64628;50.104;14.614;2022-10-31T08:04:50;99257.25;;;12.83;51.03
75945;BME280;64628;50.104;14.614;2022-10-31T08:07:16;99257.38;;;13.23;50.34
75945;BME280;64628;50.104;14.614;2022-10-31T08:09:41;99258.52;;;13.10;50.62
75945;BME280;64628;50.104;14.614;2022-10-31T08:12:06;99258.89;;;13.00;51.60
75945;BME280;64628;50.104;14.614;2022-10-31T08:14:32;99259.18;;;13.31;51.16
75945;BME280;64628;50.104;14.614;2022-10-31T08:16:58;99261.91;;;13.80;50.93
75945;BME280;64628;50.104;14.614;2022-10-31T08:19:23;99261.74;;;13.95;50.24
75945;BME280;64628;50.104;14.614;2022-10-31T08:21:50;99256.06;;;14.14;49.14
75945;BME280;64628;50.104;14.614;2022-10-31T08:24:14;99253.66;;;13.73;49.70
75945;BME280;64628;50.104;14.614;2022-10-31T08:26:39;99254.05;;;13.69;49.24
75945;BME280;64628;50.104;14.614;2022-10-31T08:29:04;99254.36;;;13.93;49.20
75945;BME280;64628;50.104;14.614;2022-10-31T08:31:30;99255.40;;;13.96;50.22
75945;BME280;64628;50.104;14.614;2022-10-31T08:33:55;99256.30;;;14.00;49.20
75945;BME280;64628;50.104;14.614;2022-10-31T08:36:21;99257.52;;;14.01;49.63
75945;BME280;64628;50.104;14.614;2022-10-31T08:38:47;99253.78;;;14.33;49.74
75945;BME280;64628;50.104;14.614;2022-10-31T08:41:11;99255.39;;;14.31;49.59
75945;BME280;64628;50.104;14.614;2022-10-31T08:43:37;99257.77;;;14.54;49.41
75945;BME280;64628;50.104;14.614;2022-10-31T08:46:03;99252.49;;;14.43;48.32
75945;BME280;64628;50.104;14.614;2022-10-31T08:48:28;99252.37;;;14.70;48.62
75945;BME280;64628;50.104;14.614;2022-10-31T08:50:56;99253.39;;;14.79;49.40
75945;BME280;64628;50.104;14.614;2022-10-31T08:53:19;99255.72;;;14.97;49.13
75945;BME280;64628;50.104;14.614;2022-10-31T08:55:45;99252.25;;;14.76;49.21
75945;BME280;64628;50.104;14.614;2022-10-31T08:58:12;99253.70;;;15.04;47.93
75945;BME280;64628;50.104;14.614;2022-10-31T09:00:35;99255.26;;;15.12;48.47
75945;BME280;64628;50.104;14.614;2022-10-31T09:03:02;99254.28;;;15.09;48.75
75945;BME280;64628;50.104;14.614;2022-10-31T09:05:27;99250.60;;;14.90;48.34
75945;BME280;64628;50.104;14.614;2022-10-31T09:07:55;99246.79;;;15.01;48.32
75945;BME280;64628;50.104;14.614;2022-10-31T09:10:18;99242.20;;;15.22;49.32
75945;BME280;64628;50.104;14.614;2022-10-31T09:12:43;99242.48;;;15.52;48.65
75945;BME280;64628;50.104;14.614;2022-10-31T09:15:08;99241.41;;;15.25;48.57
75945;BME280;64628;50.104;14.614;2022-10-31T09:17:34;99245.06;;;16.06;47.81
75945;BME280;64628;50.104;14.614;2022-10-31T09:19:59;99244.26;;;16.23;47.12
75945;BME280;64628;50.104;14.614;2022-10-31T09:22:25;99242.19;;;15.61;46.80
75945;BME280;64628;50.104;14.614;2022-10-31T09:24:50;99241.43;;;15.86;48.22
75945;BME280;64628;50.104;14.614;2022-10-31T09:27:16;99242.26;;;15.51;48.51
75945;BME280;64628;50.104;14.614;2022-10-31T09:29:41;99242.29;;;15.78;48.59
75945;BME280;64628;50.104;14.614;2022-10-31T09:32:07;99242.16;;;15.58;48.02
75945;BME280;64628;50.104;14.614;2022-10-31T09:34:33;99244.01;;;15.55;48.22
75945;BME280;64628;50.104;14.614;2022-10-31T09:36:58;99246.66;;;15.81;49.07
75945;BME280;64628;50.104;14.614;2022-10-31T09:39:23;99251.36;;;15.62;48.51
75945;BME280;64628;50.104;14.614;2022-10-31T09:42:05;99251.42;;;15.85;48.33
75945;BME280;64628;50.104;14.614;2022-10-31T09:44:20;99254.85;;;15.96;48.44
75945;BME280;64628;50.104;14.614;2022-10-31T09:46:47;99253.49;;;16.21;48.20
75945;BME280;64628;50.104;14.614;2022-10-31T09:49:28;99253.30;;;16.00;48.41
75945;BME280;64628;50.104;14.614;2022-10-31T09:51:34;99252.29;;;16.31;48.23
75945;BME280;64628;50.104;14.614;2022-10-31T09:54:00;99251.59;;;16.35;48.04
75945;BME280;64628;50.104;14.614;2022-10-31T09:56:23;99250.85;;;16.30;47.93
75945;BME280;64628;50.104;14.614;2022-10-31T09:58:49;99251.31;;;16.34;47.44
75945;BME280;64628;50.104;14.614;2022-10-31T10:01:23;99250.70;;;16.42;47.97
75945;BME280;64628;50.104;14.614;2022-10-31T10:03:42;99248.77;;;16.30;47.05
75945;BME280;64628;50.104;14.614;2022-10-31T10:06:11;99248.22;;;16.28;47.06
75945;BME280;64628;50.104;14.614;2022-10-31T10:08:32;99249.81;;;16.65;47.88
75945;BME280;64628;50.104;14.614;2022-10-31T10:11:03;99249.38;;;15.89;47.83
75945;BME280;64628;50.104;14.614;2022-10-31T10:13:33;99250.56;;;16.44;47.76
75945;BME280;64628;50.104;14.614;2022-10-31T10:15:58;99252.09;;;16.85;47.22
75945;BME280;64628;50.104;14.614;2022-10-31T10:18:20;99250.77;;;16.22;47.48
75945;BME280;64628;50.104;14.614;2022-10-31T10:20:41;99248.70;;;16.31;48.28
75945;BME280;64628;50.104;14.614;2022-10-31T10:23:13;99248.19;;;16.53;47.93
75945;BME280;64628;50.104;14.614;2022-10-31T10:25:33;99245.91;;;16.58;47.49
75945;BME280;64628;50.104;14.614;2022-10-31T10:28:00;99243.32;;;16.67;47.38
75945;BME280;64628;50.104;14.614;2022-10-31T10:30:19;99242.63;;;16.77;47.16
75945;BME280;64628;50.104;14.614;2022-10-31T10:32:45;99240.59;;;16.71;46.36
75945;BME280;64628;50.104;14.614;2022-10-31T10:35:17;99241.99;;;17.18;46.99
75945;BME280;64628;50.104;14.614;2022-10-31T10:37:38;99242.24;;;16.76;46.63
75945;BME280;64628;50.104;14.614;2022-10-31T10:40:06;99237.81;;;16.63;46.26
75945;BME280;64628;50.104;14.614;2022-10-31T10:42:27;99233.05;;;16.68;46.87
75945;BME280;64628;50.104;14.614;2022-10-31T10:44:50;99229.16;;;16.73;46.81
75945;BME280;64628;50.104;14.614;2022-10-31T10:47:15;99225.74;;;17.02;46.69
75945;BME280;64628;50.104;14.614;2022-10-31T10:49:45;99223.82;;;17.06;46.51
75945;BME280;64628;50.104;14.614;2022-10-31T10:52:13;99222.73;;;16.79;46.11
75945;BME280;64628;50.104;14.614;2022-10-31T10:54:45;99221.44;;;17.10;45.96
75945;BME280;64628;50.104;14.614;2022-10-31T10:57:06;99217.42;;;17.33;45.84
75945;BME280;64628;50.104;14.614;2022-10-31T10:59:22;99215.50;;;17.32;45.82
75945;BME280;64628;50.104;14.614;2022-10-31T11:01:50;99213.96;;;17.47;45.67
75945;BME280;64628;50.104;14.614;2022-10-31T11:04:24;99211.63;;;17.63;44.68
75945;BME280;64628;50.104;14.614;2022-10-31T11:06:39;99207.96;;;17.47;44.61
75945;BME280;64628;50.104;14.614;2022-10-31T11:09:09;99200.40;;;17.65;45.31
75945;BME280;64628;50.104;14.614;2022-10-31T11:11:30;99197.61;;;17.55;44.99
75945;BME280;64628;50.104;14.614;2022-10-31T11:13:59;99196.44;;;17.60;44.86
75945;BME280;64628;50.104;14.614;2022-10-31T11:16:27;99196.04;;;17.93;44.04
75945;BME280;64628;50.104;14.614;2022-10-31T11:18:47;99198.94;;;18.23;43.45
75945;BME280;64628;50.104;14.614;2022-10-31T11:21:19;99205.72;;;18.07;43.36
75945;BME280;64628;50.104;14.614;2022-10-31T11:23:36;99212.68;;;17.65;43.90
75945;BME280;64628;50.104;14.614;2022-10-31T11:26:04;99215.69;;;18.20;43.89
75945;BME280;64628;50.104;14.614;2022-10-31T11:28:29;99219.37;;;18.37;43.44
75945;BME280;64628;50.104;14.614;2022-10-31T11:30:54;99206.68;;;18.89;43.56
75945;BME280;64628;50.104;14.614;2022-10-31T11:33:21;99194.25;;;18.81;42.79
75945;BME280;64628;50.104;14.614;2022-10-31T11:35:43;99185.35;;;18.99;43.11
75945;BME280;64628;50.104;14.614;2022-10-31T11:38:15;99185.96;;;19.15;41.83
75945;BME280;64628;50.104;14.614;2022-10-31T11:40:33;99185.86;;;19.44;40.93
75945;BME280;64628;50.104;14.614;2022-10-31T11:42:58;99189.53;;;19.17;41.49
75945;BME280;64628;50.104;14.614;2022-10-31T11:45:31;99181.31;;;19.20;41.34
75945;BME280;64628;50.104;14.614;2022-10-31T11:47:52;99177.95;;;19.23;42.18
75945;BME280;64628;50.104;14.614;2022-10-31T11:50:20;99173.12;;;19.33;40.85
75945;BME280;64628;50.104;14.614;2022-10-31T11:52:41;99170.75;;;19.25;41.24
75945;BME280;64628;50.104;14.614;2022-10-31T11:55:15;99168.57;;;18.75;40.88
75945;BME280;64628;50.104;14.614;2022-10-31T11:57:33;99170.91;;;19.30;40.64
75945;BME280;64628;50.104;14.614;2022-10-31T11:59:58;99166.53;;;19.14;41.16
75945;BME280;64628;50.104;14.614;2022-10-31T12:02:23;99165.96;;;19.49;41.72
75945;BME280;64628;50.104;14.614;2022-10-31T12:04:55;99168.63;;;18.81;42.40
75945;BME280;64628;50.104;14.614;2022-10-31T12:07:14;99160.67;;;19.06;41.70
75945;BME280;64628;50.104;14.614;2022-10-31T12:09:39;99157.08;;;18.97;41.26
75945;BME280;64628;50.104;14.614;2022-10-31T12:12:13;99152.41;;;19.00;41.53
75945;BME280;64628;50.104;14.614;2022-10-31T12:14:35;99149.95;;;19.12;41.24
75945;BME280;64628;50.104;14.614;2022-10-31T12:16:59;99145.81;;;18.94;41.55
75945;BME280;64628;50.104;14.614;2022-10-31T12:19:27;99143.90;;;18.70;41.92
75945;BME280;64628;50.104;14.614;2022-10-31T12:22:01;99142.70;;;18.55;41.57
75945;BME280;64628;50.104;14.614;2022-10-31T12:24:21;99144.63;;;18.51;41.41
75945;BME280;64628;50.104;14.614;2022-10-31T12:26:41;99141.35;;;18.55;41.48
75945;BME280;64628;50.104;14.614;2022-10-31T12:29:10;99138.13;;;18.35;42.07
75945;BME280;64628;50.104;14.614;2022-10-31T12:31:34;99135.45;;;18.23;42.62
75945;BME280;64628;50.104;14.614;2022-10-31T12:33:58;99136.70;;;18.14;42.43
75945;BME280;64628;50.104;14.614;2022-10-31T12:36:29;99138.10;;;18.18;42.77
75945;BME280;64628;50.104;14.614;2022-10-31T12:38:54;99138.09;;;17.92;43.28
75945;BME280;64628;50.104;14.614;2022-10-31T12:41:21;99138.29;;;17.80;43.36